sensor_id;sensor_type;location;lat;lon;timestamp;P1;durP1;ratioP1;P2;durP2;ratioP2
8881;SDS011;4477;48.736;9.176;2024-01-15T00:00:21;22.67;;;10.97;;
8881;SDS011;4477;48.736;9.176;2024-01-15T00:02:48;18.53;;;10.23;;
8881;SDS011;4477;48.736;9.176;2024-01-15T00:05:15;22.33;;;10.50;;
8881;SDS011;4477;48.736;9.176;2024-01-15T00:07:42;22.47;;;10.80;;
8881;SDS011;4477;48.736;9.176;2024-01-15T00:10:09;20.00;;;10.73;;
8881;SDS011;4477;48.736;9.176;2024-01-15T00:12:36;17.80;;;9.90;;
8881;SDS011;4477;48.736;9.176;2024-01-15T00:15:05;23.43;;;10.70;;
8881;SDS011;4477;48.736;9.176;2024-01-15T00:17:32;18.10;;;10.63;;
8881;SDS011;4477;48.736;9.176;2024-01-15T00:19:59;24.37;;;11.40;;
8881;SDS011;4477;48.736;9.176;2024-01-15T00:22:26;16.63;;;9.90;;
8881;SDS011;4477;48.736;9.176;2024-01-15T00:24:53;19.70;;;10.50;;
8881;SDS011;4477;48.736;9.176;2024-01-15T00:27:20;19.93;;;9.90;;
8881;SDS011;4477;48.736;9.176;2024-01-15T00:29:48;18.93;;;10.13;;
8881;SDS011;4477;48.736;9.176;2024-01-15T00:32:17;20.20;;;9.93;;
8881;SDS011;4477;48.736;9.176;2024-01-15T00:34:45;18.17;;;10.37;;
8881;SDS011;4477;48.736;9.176;2024-01-15T00:37:12;18.43;;;9.83;;
8881;SDS011;4477;48.736;9.176;2024-01-15T00:39:39;16.60;;;8.93;;
8881;SDS011;4477;48.736;9.176;2024-01-15T00:42:06;19.83;;;10.27;;
8881;SDS011;4477;48.736;9.176;2024-01-15T00:44:33;20.03;;;10.43;;
8881;SDS011;4477;48.736;9.176;2024-01-15T00:47:00;18.53;;;9.70;;
8881;SDS011;4477;48.736;9.176;2024-01-15T00:49:29;20.47;;;9.70;;
8881;SDS011;4477;48.736;9.176;2024-01-15T00:51:56;19.03;;;10.20;;
8881;SDS011;4477;48.736;9.176;2024-01-15T00:54:23;22.07;;;9.90;;
8881;SDS011;4477;48.736;9.176;2024-01-15T00:56:50;19.30;;;9.87;;
8881;SDS011;4477;48.736;9.176;2024-01-15T00:59:17;19.97;;;10.00;;
8881;SDS011;4477;48.736;9.176;2024-01-15T01:01:46;18.80;;;9.80;;
8881;SDS011;4477;48.736;9.176;2024-01-15T01:04:13;20.97;;;10.50;;
8881;SDS011;4477;48.736;9.176;2024-01-15T01:06:41;20.03;;;9.67;;
8881;SDS011;4477;48.736;9.176;2024-01-15T01:09:08;20.17;;;10.50;;
8881;SDS011;4477;48.736;9.176;2024-01-15T01:11:35;20.20;;;10.00;;
8881;SDS011;4477;48.736;9.176;2024-01-15T01:14:02;19.67;;;10.17;;
8881;SDS011;4477;48.736;9.176;2024-01-15T01:16:29;20.93;;;10.07;;
8881;SDS011;4477;48.736;9.176;2024-01-15T01:18:56;19.20;;;10.67;;
8881;SDS011;4477;48.736;9.176;2024-01-15T01:21:23;19.83;;;10.53;;
8881;SDS011;4477;48.736;9.176;2024-01-15T01:23:51;21.93;;;10.87;;
8881;SDS011;4477;48.736;9.176;2024-01-15T01:26:18;23.83;;;11.03;;
8881;SDS011;4477;48.736;9.176;2024-01-15T01:28:45;18.67;;;9.80;;
8881;SDS011;4477;48.736;9.176;2024-01-15T01:31:12;21.30;;;9.97;;
8881;SDS011;4477;48.736;9.176;2024-01-15T01:33:39;20.67;;;9.37;;
8881;SDS011;4477;48.736;9.176;2024-01-15T01:36:09;23.73;;;10.57;;
8881;SDS011;4477;48.736;9.176;2024-01-15T01:38:36;20.17;;;10.00;;
8881;SDS011;4477;48.736;9.176;2024-01-15T01:41:05;19.53;;;9.83;;
8881;SDS011;4477;48.736;9.176;2024-01-15T01:43:32;18.87;;;9.37;;
8881;SDS011;4477;48.736;9.176;2024-01-15T01:46:00;17.97;;;9.87;;
8881;SDS011;4477;48.736;9.176;2024-01-15T01:48:28;21.00;;;9.73;;
8881;SDS011;4477;48.736;9.176;2024-01-15T01:50:58;24.37;;;10.93;;
8881;SDS011;4477;48.736;9.176;2024-01-15T01:53:27;19.43;;;9.40;;
8881;SDS011;4477;48.736;9.176;2024-01-15T01:55:57;19.63;;;9.50;;
8881;SDS011;4477;48.736;9.176;2024-01-15T01:58:25;17.23;;;9.53;;
8881;SDS011;4477;48.736;9.176;2024-01-15T02:00:53;17.47;;;9.37;;
8881;SDS011;4477;48.736;9.176;2024-01-15T02:03:20;17.17;;;10.13;;
8881;SDS011;4477;48.736;9.176;2024-01-15T02:05:48;19.03;;;9.13;;
8881;SDS011;4477;48.736;9.176;2024-01-15T02:08:15;18.30;;;9.47;;
8881;SDS011;4477;48.736;9.176;2024-01-15T02:10:42;19.10;;;9.37;;
8881;SDS011;4477;48.736;9.176;2024-01-15T02:13:09;17.90;;;8.83;;
8881;SDS011;4477;48.736;9.176;2024-01-15T02:15:37;18.40;;;9.17;;
8881;SDS011;4477;48.736;9.176;2024-01-15T02:18:05;17.93;;;8.97;;
8881;SDS011;4477;48.736;9.176;2024-01-15T02:20:32;15.83;;;8.50;;
8881;SDS011;4477;48.736;9.176;2024-01-15T02:23:10;19.87;;;9.60;;
8881;SDS011;4477;48.736;9.176;2024-01-15T02:25:39;17.93;;;9.27;;
8881;SDS011;4477;48.736;9.176;2024-01-15T02:28:08;17.00;;;9.37;;
8881;SDS011;4477;48.736;9.176;2024-01-15T02:30:38;18.10;;;8.97;;
8881;SDS011;4477;48.736;9.176;2024-01-15T02:33:05;20.17;;;9.77;;
8881;SDS011;4477;48.736;9.176;2024-01-15T02:35:32;19.00;;;9.77;;
8881;SDS011;4477;48.736;9.176;2024-01-15T02:38:01;18.57;;;9.30;;
8881;SDS011;4477;48.736;9.176;2024-01-15T02:40:30;17.63;;;8.87;;
8881;SDS011;4477;48.736;9.176;2024-01-15T02:42:57;19.60;;;10.00;;
8881;SDS011;4477;48.736;9.176;2024-01-15T02:45:24;16.73;;;8.77;;
8881;SDS011;4477;48.736;9.176;2024-01-15T02:47:51;16.77;;;8.87;;
8881;SDS011;4477;48.736;9.176;2024-01-15T02:50:18;18.43;;;9.23;;
8881;SDS011;4477;48.736;9.176;2024-01-15T02:52:45;19.63;;;9.63;;
8881;SDS011;4477;48.736;9.176;2024-01-15T02:55:12;21.27;;;9.60;;
8881;SDS011;4477;48.736;9.176;2024-01-15T02:57:40;17.73;;;8.43;;
8881;SDS011;4477;48.736;9.176;2024-01-15T03:00:08;21.30;;;10.03;;
8881;SDS011;4477;48.736;9.176;2024-01-15T03:02:36;18.63;;;8.70;;
8881;SDS011;4477;48.736;9.176;2024-01-15T03:05:05;19.40;;;10.37;;
8881;SDS011;4477;48.736;9.176;2024-01-15T03:07:33;18.33;;;8.67;;
8881;SDS011;4477;48.736;9.176;2024-01-15T03:10:00;17.77;;;9.03;;
8881;SDS011;4477;48.736;9.176;2024-01-15T03:12:27;19.37;;;9.13;;
8881;SDS011;4477;48.736;9.176;2024-01-15T03:14:55;17.90;;;9.13;;
8881;SDS011;4477;48.736;9.176;2024-01-15T03:17:22;19.37;;;9.23;;
8881;SDS011;4477;48.736;9.176;2024-01-15T03:19:49;21.13;;;10.07;;
8881;SDS011;4477;48.736;9.176;2024-01-15T03:22:16;21.97;;;9.87;;
8881;SDS011;4477;48.736;9.176;2024-01-15T03:24:43;18.37;;;9.73;;
8881;SDS011;4477;48.736;9.176;2024-01-15T03:27:11;18.10;;;9.67;;
8881;SDS011;4477;48.736;9.176;2024-01-15T03:29:39;19.37;;;10.53;;
8881;SDS011;4477;48.736;9.176;2024-01-15T03:32:07;22.03;;;9.90;;
8881;SDS011;4477;48.736;9.176;2024-01-15T03:34:35;22.23;;;10.87;;
8881;SDS011;4477;48.736;9.176;2024-01-15T03:37:02;18.93;;;9.03;;
8881;SDS011;4477;48.736;9.176;2024-01-15T03:39:29;20.57;;;9.97;;
8881;SDS011;4477;48.736;9.176;2024-01-15T03:41:56;19.17;;;9.97;;
8881;SDS011;4477;48.736;9.176;2024-01-15T03:44:23;19.40;;;9.20;;
8881;SDS011;4477;48.736;9.176;2024-01-15T03:46:50;19.23;;;10.20;;
8881;SDS011;4477;48.736;9.176;2024-01-15T03:49:19;16.10;;;9.07;;
8881;SDS011;4477;48.736;9.176;2024-01-15T03:51:46;21.80;;;10.33;;
8881;SDS011;4477;48.736;9.176;2024-01-15T03:54:13;19.33;;;10.00;;
8881;SDS011;4477;48.736;9.176;2024-01-15T03:56:40;18.70;;;9.67;;
8881;SDS011;4477;48.736;9.176;2024-01-15T03:59:06;19.83;;;10.60;;
8881;SDS011;4477;48.736;9.176;2024-01-15T04:01:33;19.37;;;9.80;;
8881;SDS011;4477;48.736;9.176;2024-01-15T04:04:00;20.53;;;10.20;;
8881;SDS011;4477;48.736;9.176;2024-01-15T04:06:28;18.50;;;9.10;;
8881;SDS011;4477;48.736;9.176;2024-01-15T04:08:55;20.43;;;10.23;;
8881;SDS011;4477;48.736;9.176;2024-01-15T04:11:22;17.67;;;9.07;;
8881;SDS011;4477;48.736;9.176;2024-01-15T04:13:49;18.17;;;9.10;;
8881;SDS011;4477;48.736;9.176;2024-01-15T04:16:16;18.43;;;9.53;;
8881;SDS011;4477;48.736;9.176;2024-01-15T04:18:44;17.93;;;9.83;;
8881;SDS011;4477;48.736;9.176;2024-01-15T04:21:11;15.30;;;8.93;;
8881;SDS011;4477;48.736;9.176;2024-01-15T04:23:40;19.57;;;9.23;;
8881;SDS011;4477;48.736;9.176;2024-01-15T04:26:07;17.23;;;8.37;;
8881;SDS011;4477;48.736;9.176;2024-01-15T04:28:33;16.57;;;8.43;;
8881;SDS011;4477;48.736;9.176;2024-01-15T04:31:00;15.50;;;8.23;;
8881;SDS011;4477;48.736;9.176;2024-01-15T04:33:27;14.47;;;8.60;;
8881;SDS011;4477;48.736;9.176;2024-01-15T04:35:54;18.10;;;9.97;;
8881;SDS011;4477;48.736;9.176;2024-01-15T04:38:21;17.10;;;9.40;;
8881;SDS011;4477;48.736;9.176;2024-01-15T04:40:50;18.60;;;9.03;;
8881;SDS011;4477;48.736;9.176;2024-01-15T04:43:17;16.43;;;9.50;;
8881;SDS011;4477;48.736;9.176;2024-01-15T04:45:44;16.20;;;8.83;;
8881;SDS011;4477;48.736;9.176;2024-01-15T04:48:12;16.43;;;8.93;;
8881;SDS011;4477;48.736;9.176;2024-01-15T04:50:39;15.87;;;8.83;;
8881;SDS011;4477;48.736;9.176;2024-01-15T04:53:05;18.30;;;9.13;;
8881;SDS011;4477;48.736;9.176;2024-01-15T04:55:32;16.27;;;8.67;;
8881;SDS011;4477;48.736;9.176;2024-01-15T04:58:01;16.70;;;9.43;;
8881;SDS011;4477;48.736;9.176;2024-01-15T05:00:28;16.63;;;8.17;;
8881;SDS011;4477;48.736;9.176;2024-01-15T05:02:55;15.53;;;8.53;;
8881;SDS011;4477;48.736;9.176;2024-01-15T05:05:22;20.40;;;9.93;;
8881;SDS011;4477;48.736;9.176;2024-01-15T05:07:49;15.07;;;8.57;;
8881;SDS011;4477;48.736;9.176;2024-01-15T05:10:16;19.20;;;9.70;;
8881;SDS011;4477;48.736;9.176;2024-01-15T05:12:43;19.20;;;9.53;;
8881;SDS011;4477;48.736;9.176;2024-01-15T05:15:11;15.83;;;8.63;;
8881;SDS011;4477;48.736;9.176;2024-01-15T05:17:38;15.57;;;9.00;;
8881;SDS011;4477;48.736;9.176;2024-01-15T05:20:05;18.00;;;10.13;;
8881;SDS011;4477;48.736;9.176;2024-01-15T05:22:33;16.90;;;10.10;;
8881;SDS011;4477;48.736;9.176;2024-01-15T05:25:00;18.13;;;8.97;;
8881;SDS011;4477;48.736;9.176;2024-01-15T05:27:26;18.17;;;9.13;;
8881;SDS011;4477;48.736;9.176;2024-01-15T05:29:53;16.27;;;8.50;;
8881;SDS011;4477;48.736;9.176;2024-01-15T05:32:22;17.47;;;9.80;;
8881;SDS011;4477;48.736;9.176;2024-01-15T05:34:48;16.40;;;9.03;;
8881;SDS011;4477;48.736;9.176;2024-01-15T05:37:15;17.07;;;9.13;;
8881;SDS011;4477;48.736;9.176;2024-01-15T05:39:42;15.63;;;9.47;;
8881;SDS011;4477;48.736;9.176;2024-01-15T05:42:09;15.00;;;9.43;;
8881;SDS011;4477;48.736;9.176;2024-01-15T05:44:36;14.47;;;8.97;;
8881;SDS011;4477;48.736;9.176;2024-01-15T05:47:03;16.77;;;8.60;;
8881;SDS011;4477;48.736;9.176;2024-01-15T05:49:32;20.07;;;11.07;;
8881;SDS011;4477;48.736;9.176;2024-01-15T05:51:59;17.90;;;9.87;;
8881;SDS011;4477;48.736;9.176;2024-01-15T05:54:26;17.90;;;9.50;;
8881;SDS011;4477;48.736;9.176;2024-01-15T05:56:53;17.57;;;10.10;;
8881;SDS011;4477;48.736;9.176;2024-01-15T05:59:23;17.47;;;10.73;;
8881;SDS011;4477;48.736;9.176;2024-01-15T06:01:50;19.37;;;10.87;;
8881;SDS011;4477;48.736;9.176;2024-01-15T06:04:17;19.10;;;11.03;;
8881;SDS011;4477;48.736;9.176;2024-01-15T06:06:46;20.10;;;11.57;;
8881;SDS011;4477;48.736;9.176;2024-01-15T06:09:12;22.87;;;11.73;;
8881;SDS011;4477;48.736;9.176;2024-01-15T06:11:39;21.60;;;11.70;;
8881;SDS011;4477;48.736;9.176;2024-01-15T06:14:06;18.53;;;10.93;;
8881;SDS011;4477;48.736;9.176;2024-01-15T06:16:33;23.17;;;11.77;;
8881;SDS011;4477;48.736;9.176;2024-01-15T06:19:00;20.17;;;11.30;;
8881;SDS011;4477;48.736;9.176;2024-01-15T06:21:27;22.03;;;11.30;;
8881;SDS011;4477;48.736;9.176;2024-01-15T06:23:55;19.63;;;12.00;;
8881;SDS011;4477;48.736;9.176;2024-01-15T06:26:22;21.43;;;11.30;;
8881;SDS011;4477;48.736;9.176;2024-01-15T06:28:49;20.37;;;10.60;;
8881;SDS011;4477;48.736;9.176;2024-01-15T06:31:16;18.20;;;11.20;;
8881;SDS011;4477;48.736;9.176;2024-01-15T06:33:43;18.77;;;10.90;;
8881;SDS011;4477;48.736;9.176;2024-01-15T06:36:12;17.07;;;9.80;;
8881;SDS011;4477;48.736;9.176;2024-01-15T06:38:39;18.13;;;10.83;;
8881;SDS011;4477;48.736;9.176;2024-01-15T06:41:07;20.90;;;11.23;;
8881;SDS011;4477;48.736;9.176;2024-01-15T06:43:34;15.40;;;9.60;;
8881;SDS011;4477;48.736;9.176;2024-01-15T06:46:01;17.67;;;10.53;;
8881;SDS011;4477;48.736;9.176;2024-01-15T06:48:28;18.33;;;10.73;;
8881;SDS011;4477;48.736;9.176;2024-01-15T06:50:55;15.53;;;9.63;;
8881;SDS011;4477;48.736;9.176;2024-01-15T06:53:22;17.70;;;10.03;;
8881;SDS011;4477;48.736;9.176;2024-01-15T06:55:49;15.47;;;8.67;;
8881;SDS011;4477;48.736;9.176;2024-01-15T06:58:17;16.73;;;9.47;;
8881;SDS011;4477;48.736;9.176;2024-01-15T07:00:44;14.90;;;9.57;;
8881;SDS011;4477;48.736;9.176;2024-01-15T07:03:11;17.37;;;9.47;;
8881;SDS011;4477;48.736;9.176;2024-01-15T07:05:38;14.50;;;7.87;;
8881;SDS011;4477;48.736;9.176;2024-01-15T07:08:05;15.93;;;8.37;;
8881;SDS011;4477;48.736;9.176;2024-01-15T07:10:32;14.77;;;8.40;;
8881;SDS011;4477;48.736;9.176;2024-01-15T07:12:59;14.27;;;8.70;;
8881;SDS011;4477;48.736;9.176;2024-01-15T07:15:28;13.97;;;8.37;;
8881;SDS011;4477;48.736;9.176;2024-01-15T07:17:55;17.63;;;8.77;;
8881;SDS011;4477;48.736;9.176;2024-01-15T07:20:22;15.07;;;8.27;;
8881;SDS011;4477;48.736;9.176;2024-01-15T07:22:49;16.83;;;8.80;;
8881;SDS011;4477;48.736;9.176;2024-01-15T07:25:16;16.27;;;8.70;;
8881;SDS011;4477;48.736;9.176;2024-01-15T07:27:43;14.97;;;8.77;;
8881;SDS011;4477;48.736;9.176;2024-01-15T07:30:11;14.00;;;8.20;;
8881;SDS011;4477;48.736;9.176;2024-01-15T07:32:40;14.13;;;8.47;;
8881;SDS011;4477;48.736;9.176;2024-01-15T07:35:07;15.60;;;8.63;;
8881;SDS011;4477;48.736;9.176;2024-01-15T07:37:35;16.93;;;8.60;;
8881;SDS011;4477;48.736;9.176;2024-01-15T07:40:02;14.77;;;8.20;;
8881;SDS011;4477;48.736;9.176;2024-01-15T07:42:31;15.43;;;8.80;;
8881;SDS011;4477;48.736;9.176;2024-01-15T07:44:58;12.63;;;7.67;;
8881;SDS011;4477;48.736;9.176;2024-01-15T07:47:25;16.03;;;7.90;;
8881;SDS011;4477;48.736;9.176;2024-01-15T07:49:54;16.13;;;7.77;;
8881;SDS011;4477;48.736;9.176;2024-01-15T07:52:21;15.20;;;7.87;;
8881;SDS011;4477;48.736;9.176;2024-01-15T07:54:48;12.30;;;7.33;;
8881;SDS011;4477;48.736;9.176;2024-01-15T07:57:15;12.07;;;7.40;;
8881;SDS011;4477;48.736;9.176;2024-01-15T07:59:42;15.40;;;7.77;;
8881;SDS011;4477;48.736;9.176;2024-01-15T08:02:09;17.43;;;8.20;;
8881;SDS011;4477;48.736;9.176;2024-01-15T08:04:36;13.20;;;7.43;;
8881;SDS011;4477;48.736;9.176;2024-01-15T08:07:05;13.63;;;7.50;;
8881;SDS011;4477;48.736;9.176;2024-01-15T08:09:32;14.60;;;6.90;;
8881;SDS011;4477;48.736;9.176;2024-01-15T08:11:59;12.30;;;7.30;;
8881;SDS011;4477;48.736;9.176;2024-01-15T08:14:25;13.00;;;7.27;;
8881;SDS011;4477;48.736;9.176;2024-01-15T08:16:52;11.43;;;7.43;;
8881;SDS011;4477;48.736;9.176;2024-01-15T08:19:19;13.53;;;7.83;;
8881;SDS011;4477;48.736;9.176;2024-01-15T08:21:46;12.40;;;7.83;;
8881;SDS011;4477;48.736;9.176;2024-01-15T08:24:14;15.33;;;8.30;;
8881;SDS011;4477;48.736;9.176;2024-01-15T08:26:42;13.63;;;8.17;;
8881;SDS011;4477;48.736;9.176;2024-01-15T08:29:10;12.87;;;8.03;;
8881;SDS011;4477;48.736;9.176;2024-01-15T08:31:37;11.73;;;7.33;;
8881;SDS011;4477;48.736;9.176;2024-01-15T08:34:04;12.63;;;7.40;;
8881;SDS011;4477;48.736;9.176;2024-01-15T08:36:31;12.40;;;7.53;;
8881;SDS011;4477;48.736;9.176;2024-01-15T08:39:00;13.70;;;7.70;;
8881;SDS011;4477;48.736;9.176;2024-01-15T08:41:30;14.77;;;7.83;;
8881;SDS011;4477;48.736;9.176;2024-01-15T08:43:57;13.20;;;7.20;;
8881;SDS011;4477;48.736;9.176;2024-01-15T08:46:24;14.63;;;7.67;;
8881;SDS011;4477;48.736;9.176;2024-01-15T08:48:51;12.53;;;6.60;;
8881;SDS011;4477;48.736;9.176;2024-01-15T08:51:18;10.27;;;6.60;;
8881;SDS011;4477;48.736;9.176;2024-01-15T08:53:45;11.87;;;7.23;;
8881;SDS011;4477;48.736;9.176;2024-01-15T08:56:12;9.17;;;6.03;;
8881;SDS011;4477;48.736;9.176;2024-01-15T08:58:41;11.60;;;7.07;;
8881;SDS011;4477;48.736;9.176;2024-01-15T09:01:08;13.30;;;6.60;;
8881;SDS011;4477;48.736;9.176;2024-01-15T09:03:35;10.13;;;6.10;;
8881;SDS011;4477;48.736;9.176;2024-01-15T09:06:02;10.67;;;6.03;;
8881;SDS011;4477;48.736;9.176;2024-01-15T09:08:29;9.93;;;5.60;;
8881;SDS011;4477;48.736;9.176;2024-01-15T09:10:56;9.00;;;5.67;;
8881;SDS011;4477;48.736;9.176;2024-01-15T09:13:23;9.93;;;6.10;;
8881;SDS011;4477;48.736;9.176;2024-01-15T09:15:51;9.67;;;5.77;;
8881;SDS011;4477;48.736;9.176;2024-01-15T09:18:18;8.03;;;5.80;;
8881;SDS011;4477;48.736;9.176;2024-01-15T09:20:45;8.30;;;4.80;;
8881;SDS011;4477;48.736;9.176;2024-01-15T09:23:12;8.57;;;5.30;;
8881;SDS011;4477;48.736;9.176;2024-01-15T09:25:39;8.60;;;5.17;;
8881;SDS011;4477;48.736;9.176;2024-01-15T09:28:06;7.93;;;4.70;;
8881;SDS011;4477;48.736;9.176;2024-01-15T09:30:33;10.87;;;5.20;;
8881;SDS011;4477;48.736;9.176;2024-01-15T09:33:02;8.70;;;5.30;;
8881;SDS011;4477;48.736;9.176;2024-01-15T09:35:30;7.77;;;4.73;;
8881;SDS011;4477;48.736;9.176;2024-01-15T09:37:57;7.50;;;4.97;;
8881;SDS011;4477;48.736;9.176;2024-01-15T09:40:24;7.50;;;4.87;;
8881;SDS011;4477;48.736;9.176;2024-01-15T09:42:55;8.60;;;4.73;;
8881;SDS011;4477;48.736;9.176;2024-01-15T09:45:22;9.13;;;5.20;;
8881;SDS011;4477;48.736;9.176;2024-01-15T09:47:49;9.43;;;5.63;;
8881;SDS011;4477;48.736;9.176;2024-01-15T09:50:17;8.60;;;4.57;;
8881;SDS011;4477;48.736;9.176;2024-01-15T09:52:45;7.47;;;4.83;;
8881;SDS011;4477;48.736;9.176;2024-01-15T09:55:13;6.30;;;4.70;;
8881;SDS011;4477;48.736;9.176;2024-01-15T09:57:41;6.90;;;4.47;;
8881;SDS011;4477;48.736;9.176;2024-01-15T10:00:08;8.10;;;4.80;;
8881;SDS011;4477;48.736;9.176;2024-01-15T10:02:36;8.30;;;5.03;;
8881;SDS011;4477;48.736;9.176;2024-01-15T10:05:04;8.17;;;5.20;;
8881;SDS011;4477;48.736;9.176;2024-01-15T10:07:32;10.07;;;4.50;;
8881;SDS011;4477;48.736;9.176;2024-01-15T10:10:02;8.03;;;5.40;;
8881;SDS011;4477;48.736;9.176;2024-01-15T10:12:29;8.50;;;4.97;;
8881;SDS011;4477;48.736;9.176;2024-01-15T10:14:56;8.47;;;5.13;;
8881;SDS011;4477;48.736;9.176;2024-01-15T10:17:23;16.40;;;8.30;;
8881;SDS011;4477;48.736;9.176;2024-01-15T10:19:52;7.87;;;5.20;;
8881;SDS011;4477;48.736;9.176;2024-01-15T10:22:19;8.80;;;5.17;;
8881;SDS011;4477;48.736;9.176;2024-01-15T10:24:47;9.93;;;6.70;;
8881;SDS011;4477;48.736;9.176;2024-01-15T10:27:15;8.87;;;4.83;;
8881;SDS011;4477;48.736;9.176;2024-01-15T10:29:42;7.07;;;4.77;;
8881;SDS011;4477;48.736;9.176;2024-01-15T10:32:09;10.70;;;5.87;;
8881;SDS011;4477;48.736;9.176;2024-01-15T10:34:37;6.67;;;5.13;;
8881;SDS011;4477;48.736;9.176;2024-01-15T10:37:07;9.83;;;6.17;;
8881;SDS011;4477;48.736;9.176;2024-01-15T10:39:34;8.07;;;4.73;;
8881;SDS011;4477;48.736;9.176;2024-01-15T10:42:04;8.27;;;5.33;;
8881;SDS011;4477;48.736;9.176;2024-01-15T10:44:31;8.97;;;5.57;;
8881;SDS011;4477;48.736;9.176;2024-01-15T10:46:58;8.20;;;6.17;;
8881;SDS011;4477;48.736;9.176;2024-01-15T10:49:25;11.67;;;5.63;;
8881;SDS011;4477;48.736;9.176;2024-01-15T10:51:54;9.47;;;6.03;;
8881;SDS011;4477;48.736;9.176;2024-01-15T10:54:21;7.23;;;4.73;;
8881;SDS011;4477;48.736;9.176;2024-01-15T10:56:49;8.30;;;5.63;;
8881;SDS011;4477;48.736;9.176;2024-01-15T10:59:20;8.37;;;5.50;;
8881;SDS011;4477;48.736;9.176;2024-01-15T11:01:48;10.23;;;5.83;;
8881;SDS011;4477;48.736;9.176;2024-01-15T11:04:18;9.90;;;5.90;;
8881;SDS011;4477;48.736;9.176;2024-01-15T11:06:47;8.57;;;5.50;;
8881;SDS011;4477;48.736;9.176;2024-01-15T11:09:16;7.70;;;5.33;;
8881;SDS011;4477;48.736;9.176;2024-01-15T11:11:44;8.03;;;5.50;;
8881;SDS011;4477;48.736;9.176;2024-01-15T11:14:19;8.30;;;5.13;;
8881;SDS011;4477;48.736;9.176;2024-01-15T11:17:00;9.90;;;5.70;;
8881;SDS011;4477;48.736;9.176;2024-01-15T11:19:34;7.53;;;5.57;;
8881;SDS011;4477;48.736;9.176;2024-01-15T11:22:03;9.67;;;6.20;;
8881;SDS011;4477;48.736;9.176;2024-01-15T11:24:38;9.63;;;5.97;;
8881;SDS011;4477;48.736;9.176;2024-01-15T11:27:06;9.20;;;5.93;;
8881;SDS011;4477;48.736;9.176;2024-01-15T11:29:37;7.33;;;5.27;;
8881;SDS011;4477;48.736;9.176;2024-01-15T11:32:04;8.97;;;5.50;;
8881;SDS011;4477;48.736;9.176;2024-01-15T11:34:51;7.70;;;5.17;;
8881;SDS011;4477;48.736;9.176;2024-01-15T11:37:23;7.97;;;5.73;;
8881;SDS011;4477;48.736;9.176;2024-01-15T11:39:52;9.87;;;5.47;;
8881;SDS011;4477;48.736;9.176;2024-01-15T11:42:20;8.63;;;5.67;;
8881;SDS011;4477;48.736;9.176;2024-01-15T11:44:49;7.50;;;5.00;;
8881;SDS011;4477;48.736;9.176;2024-01-15T11:47:17;8.00;;;4.97;;
8881;SDS011;4477;48.736;9.176;2024-01-15T11:50:03;9.43;;;5.50;;
8881;SDS011;4477;48.736;9.176;2024-01-15T11:52:33;9.27;;;5.77;;
8881;SDS011;4477;48.736;9.176;2024-01-15T11:55:06;9.03;;;5.50;;
8881;SDS011;4477;48.736;9.176;2024-01-15T11:57:42;9.00;;;5.90;;
8881;SDS011;4477;48.736;9.176;2024-01-15T12:00:14;8.30;;;6.13;;
8881;SDS011;4477;48.736;9.176;2024-01-15T12:02:41;8.27;;;5.30;;
8881;SDS011;4477;48.736;9.176;2024-01-15T12:05:11;8.97;;;5.27;;
8881;SDS011;4477;48.736;9.176;2024-01-15T12:07:39;10.03;;;6.40;;
8881;SDS011;4477;48.736;9.176;2024-01-15T12:10:09;8.03;;;5.50;;
8881;SDS011;4477;48.736;9.176;2024-01-15T12:12:44;9.83;;;5.80;;
8881;SDS011;4477;48.736;9.176;2024-01-15T12:15:21;12.70;;;8.23;;
8881;SDS011;4477;48.736;9.176;2024-01-15T12:17:48;10.70;;;7.13;;
8881;SDS011;4477;48.736;9.176;2024-01-15T12:20:15;10.23;;;6.33;;
8881;SDS011;4477;48.736;9.176;2024-01-15T12:22:44;9.73;;;6.53;;
8881;SDS011;4477;48.736;9.176;2024-01-15T12:25:11;11.73;;;6.03;;
8881;SDS011;4477;48.736;9.176;2024-01-15T12:27:38;9.40;;;6.20;;
8881;SDS011;4477;48.736;9.176;2024-01-15T12:30:06;11.10;;;6.13;;
8881;SDS011;4477;48.736;9.176;2024-01-15T12:32:37;12.73;;;7.13;;
8881;SDS011;4477;48.736;9.176;2024-01-15T12:35:06;11.23;;;6.30;;
8881;SDS011;4477;48.736;9.176;2024-01-15T12:37:34;8.30;;;6.50;;
8881;SDS011;4477;48.736;9.176;2024-01-15T12:40:02;10.60;;;6.83;;
8881;SDS011;4477;48.736;9.176;2024-01-15T12:42:29;12.83;;;7.67;;
8881;SDS011;4477;48.736;9.176;2024-01-15T12:44:56;11.33;;;7.13;;
8881;SDS011;4477;48.736;9.176;2024-01-15T12:47:23;12.63;;;7.47;;
8881;SDS011;4477;48.736;9.176;2024-01-15T12:49:52;10.83;;;7.87;;
8881;SDS011;4477;48.736;9.176;2024-01-15T12:52:20;11.93;;;6.80;;
8881;SDS011;4477;48.736;9.176;2024-01-15T12:54:48;13.33;;;7.50;;
8881;SDS011;4477;48.736;9.176;2024-01-15T12:57:15;10.13;;;6.93;;
8881;SDS011;4477;48.736;9.176;2024-01-15T12:59:42;13.30;;;7.47;;
8881;SDS011;4477;48.736;9.176;2024-01-15T13:02:09;10.60;;;7.57;;
8881;SDS011;4477;48.736;9.176;2024-01-15T13:04:36;11.43;;;8.00;;
8881;SDS011;4477;48.736;9.176;2024-01-15T13:07:05;11.93;;;8.33;;
8881;SDS011;4477;48.736;9.176;2024-01-15T13:09:33;11.87;;;7.93;;
8881;SDS011;4477;48.736;9.176;2024-01-15T13:12:00;14.07;;;8.53;;
8881;SDS011;4477;48.736;9.176;2024-01-15T13:14:28;11.83;;;7.70;;
8881;SDS011;4477;48.736;9.176;2024-01-15T13:16:55;11.43;;;7.20;;
8881;SDS011;4477;48.736;9.176;2024-01-15T13:19:23;9.20;;;6.63;;
8881;SDS011;4477;48.736;9.176;2024-01-15T13:21:50;11.93;;;6.57;;
8881;SDS011;4477;48.736;9.176;2024-01-15T13:24:20;10.43;;;6.93;;
8881;SDS011;4477;48.736;9.176;2024-01-15T13:26:47;10.80;;;7.13;;
8881;SDS011;4477;48.736;9.176;2024-01-15T13:29:14;9.20;;;6.00;;
8881;SDS011;4477;48.736;9.176;2024-01-15T13:31:41;14.30;;;7.17;;
8881;SDS011;4477;48.736;9.176;2024-01-15T13:34:11;11.60;;;8.23;;
8881;SDS011;4477;48.736;9.176;2024-01-15T13:36:39;14.30;;;7.77;;
8881;SDS011;4477;48.736;9.176;2024-01-15T13:39:06;11.60;;;6.57;;
8881;SDS011;4477;48.736;9.176;2024-01-15T13:41:35;11.30;;;6.40;;
8881;SDS011;4477;48.736;9.176;2024-01-15T13:44:02;11.33;;;7.13;;
8881;SDS011;4477;48.736;9.176;2024-01-15T13:46:29;13.80;;;8.43;;
8881;SDS011;4477;48.736;9.176;2024-01-15T13:48:56;11.00;;;6.50;;
8881;SDS011;4477;48.736;9.176;2024-01-15T13:51:23;10.63;;;7.00;;
8881;SDS011;4477;48.736;9.176;2024-01-15T13:53:50;11.67;;;7.13;;
8881;SDS011;4477;48.736;9.176;2024-01-15T13:56:18;13.93;;;7.67;;
8881;SDS011;4477;48.736;9.176;2024-01-15T13:58:47;11.47;;;7.17;;
8881;SDS011;4477;48.736;9.176;2024-01-15T14:01:15;12.60;;;7.47;;
8881;SDS011;4477;48.736;9.176;2024-01-15T14:03:42;14.10;;;7.27;;
8881;SDS011;4477;48.736;9.176;2024-01-15T14:06:09;10.70;;;6.73;;
8881;SDS011;4477;48.736;9.176;2024-01-15T14:08:37;10.43;;;6.83;;
8881;SDS011;4477;48.736;9.176;2024-01-15T14:11:04;11.03;;;6.47;;
8881;SDS011;4477;48.736;9.176;2024-01-15T14:13:32;8.13;;;5.97;;
8881;SDS011;4477;48.736;9.176;2024-01-15T14:16:00;7.87;;;6.10;;
8881;SDS011;4477;48.736;9.176;2024-01-15T14:18:27;10.67;;;5.93;;
8881;SDS011;4477;48.736;9.176;2024-01-15T14:20:56;11.87;;;6.13;;
8881;SDS011;4477;48.736;9.176;2024-01-15T14:23:23;11.50;;;6.30;;
8881;SDS011;4477;48.736;9.176;2024-01-15T14:25:50;9.77;;;5.90;;
8881;SDS011;4477;48.736;9.176;2024-01-15T14:28:17;8.73;;;5.77;;
8881;SDS011;4477;48.736;9.176;2024-01-15T14:30:43;7.10;;;5.50;;
8881;SDS011;4477;48.736;9.176;2024-01-15T14:33:12;7.80;;;5.83;;
8881;SDS011;4477;48.736;9.176;2024-01-15T14:35:39;8.03;;;5.37;;
8881;SDS011;4477;48.736;9.176;2024-01-15T14:38:06;8.57;;;6.30;;
8881;SDS011;4477;48.736;9.176;2024-01-15T14:40:34;5.57;;;4.83;;
8881;SDS011;4477;48.736;9.176;2024-01-15T14:43:02;7.53;;;5.53;;
8881;SDS011;4477;48.736;9.176;2024-01-15T14:45:29;9.80;;;6.40;;
8881;SDS011;4477;48.736;9.176;2024-01-15T14:47:56;9.20;;;6.17;;
8881;SDS011;4477;48.736;9.176;2024-01-15T14:50:25;7.63;;;5.77;;
8881;SDS011;4477;48.736;9.176;2024-01-15T14:52:52;8.57;;;5.80;;
8881;SDS011;4477;48.736;9.176;2024-01-15T14:55:19;9.17;;;6.07;;
8881;SDS011;4477;48.736;9.176;2024-01-15T14:57:48;8.23;;;5.70;;
8881;SDS011;4477;48.736;9.176;2024-01-15T15:00:15;11.60;;;7.67;;
8881;SDS011;4477;48.736;9.176;2024-01-15T15:02:43;7.60;;;6.47;;
8881;SDS011;4477;48.736;9.176;2024-01-15T15:05:10;10.10;;;6.50;;